Time;durP1;ratioP1;P1;durP2;ratioP2;P2;SDS_P1;SDS_P2;PMS_P1;PMS_P2;Temp;Humidity;BMP_temperature;BMP_pressure;BME280_temperature;BME280_humidity;BME280_pressure;Samples;Min_cycle;Max_cycle;Signal;HPM_P1;HPM_P2
2022/07/26 00:00:44;;;;;;;4.13;3.70;;;23.00;99.90;;;;;;5043830;28;20850;-74
2022/07/26 00:03:11;;;;;;;3.95;3.65;;;22.90;99.90;;;;;;5045820;28;20223;-72
2022/07/26 00:05:38;;;;;;;5.75;4.78;;;23.00;99.90;;;;;;5047410;28;20571;-72
2022/07/26 00:08:12;;;;;;;3.80;3.50;;;22.70;99.90;;;;;;5047910;28;20268;-73
2022/07/26 00:10:45;;;;;;;4.13;3.83;;;22.60;99.90;;;;;;5052407;28;20206;-72
2022/07/26 00:13:13;;;;;;;4.50;3.75;;;22.50;99.90;;;;;;5051828;28;20218;-73
2022/07/26 00:15:40;;;;;;;6.15;4.00;;;22.70;99.90;;;;;;5050018;28;20202;-73
2022/07/26 00:18:07;;;;;;;5.32;4.03;;;22.70;99.90;;;;;;5049571;28;20222;-72
2022/07/26 00:20:34;;;;;;;73.50;7.10;;;22.60;99.90;;;;;;5049626;28;20573;-73
2022/07/26 00:23:01;;;;;;;4.65;4.25;;;22.50;99.90;;;;;;5047669;28;20223;-71
2022/07/26 00:25:29;;;;;;;4.57;4.18;;;22.20;99.90;;;;;;5051333;28;20202;-72
2022/07/26 00:27:58;;;;;;;5.55;5.05;;;22.10;99.90;;;;;;5047495;28;20563;-72
2022/07/26 00:30:25;;;;;;;7.25;6.35;;;22.10;99.90;;;;;;5047003;28;20195;-73
2022/07/26 00:32:52;;;;;;;6.03;4.72;;;21.90;99.90;;;;;;5051664;28;20234;-73
2022/07/26 00:35:20;;;;;;;7.28;4.95;;;21.60;99.90;;;;;;5051000;28;20191;-72
2022/07/26 00:37:48;;;;;;;5.15;4.22;;;21.80;99.90;;;;;;5050914;28;20692;-72
2022/07/26 00:40:16;;;;;;;4.97;4.20;;;22.00;99.90;;;;;;5049504;28;20187;-72
2022/07/26 00:42:43;;;;;;;4.68;4.15;;;22.30;99.90;;;;;;5053745;28;20310;-72
2022/07/26 00:45:13;;;;;;;4.38;3.97;;;22.40;99.90;;;;;;5052805;28;20199;-71
2022/07/26 00:47:40;;;;;;;3.97;3.67;;;22.50;99.90;;;;;;5046078;28;20215;-73
2022/07/26 00:50:10;;;;;;;4.18;3.80;;;22.50;99.90;;;;;;5052414;28;20260;-72
2022/07/26 00:52:37;;;;;;;5.18;4.70;;;22.50;99.90;;;;;;5051112;28;20234;-73
2022/07/26 00:55:06;;;;;;;4.53;4.00;;;22.60;99.90;;;;;;5052985;28;20724;-72
2022/07/26 00:57:34;;;;;;;5.90;4.40;;;22.50;99.90;;;;;;5053393;28;20777;-72
2022/07/26 01:00:02;;;;;;;4.35;3.95;;;22.50;99.90;;;;;;5060275;28;20214;-72
2022/07/26 01:02:30;;;;;;;4.43;4.03;;;22.50;99.90;;;;;;5055013;28;20222;-72
2022/07/26 01:04:58;;;;;;;4.65;4.20;;;22.60;99.90;;;;;;5054184;28;20691;-72
2022/07/26 01:07:25;;;;;;;4.22;3.92;;;22.80;99.90;;;;;;5049550;28;20229;-72
2022/07/26 01:09:52;;;;;;;3.65;3.42;;;23.00;99.90;;;;;;5051843;28;20195;-74
2022/07/26 01:12:19;;;;;;;4.20;3.83;;;23.20;99.90;;;;;;5048578;28;20269;-72
2022/07/26 01:14:46;;;;;;;4.00;3.70;;;23.30;99.90;;;;;;5046803;28;20222;-71
2022/07/26 01:17:14;;;;;;;4.10;3.80;;;23.20;99.90;;;;;;5048086;28;20226;-75
2022/07/26 01:19:43;;;;;;;3.90;3.55;;;23.10;99.90;;;;;;5053643;28;20203;-73
2022/07/26 01:22:11;;;;;;;4.35;4.05;;;23.10;99.90;;;;;;5049791;28;20226;-72
2022/07/26 01:24:38;;;;;;;3.85;3.50;;;23.10;99.90;;;;;;5052692;28;20210;-72
2022/07/26 01:27:05;;;;;;;3.72;3.42;;;23.10;99.90;;;;;;5051367;28;20234;-73
2022/07/26 01:29:33;;;;;;;4.45;4.05;;;23.10;99.90;;;;;;5051306;28;20202;-72
2022/07/26 01:32:02;;;;;;;3.97;3.67;;;23.10;99.90;;;;;;5050716;28;20215;-73
2022/07/26 01:34:30;;;;;;;3.70;3.50;;;23.20;99.90;;;;;;5050382;28;20209;-73
2022/07/26 01:36:57;;;;;;;3.95;3.65;;;23.30;99.90;;;;;;5045873;28;20198;-72
2022/07/26 01:39:25;;;;;;;4.68;4.25;;;23.30;99.90;;;;;;5053756;28;20202;-72
2022/07/26 01:41:52;;;;;;;4.68;4.13;;;23.10;99.90;;;;;;5049065;28;20698;-72
2022/07/26 01:44:21;;;;;;;3.75;3.45;;;22.90;99.90;;;;;;5051943;28;20199;-72
2022/07/26 01:46:48;;;;;;;3.92;3.63;;;22.90;99.90;;;;;;5051848;28;20199;-73
2022/07/26 01:49:16;;;;;;;3.65;3.35;;;22.90;99.90;;;;;;5053339;28;20203;-72
2022/07/26 01:51:43;;;;;;;3.55;3.33;;;23.00;99.90;;;;;;5049889;28;20970;-72
2022/07/26 01:54:10;;;;;;;3.95;3.65;;;23.00;99.90;;;;;;5050268;28;20732;-72
2022/07/26 01:56:39;;;;;;;4.07;3.78;;;23.00;99.90;;;;;;5047619;28;20211;-73
2022/07/26 01:59:06;;;;;;;4.10;3.70;;;22.80;99.90;;;;;;5050300;28;20253;-72
2022/07/26 02:01:33;;;;;;;4.65;4.25;;;22.90;99.90;;;;;;5047374;28;20228;-72
2022/07/26 02:04:00;;;;;;;4.03;3.63;;;23.00;99.90;;;;;;5049621;28;20280;-72
2022/07/26 02:06:27;;;;;;;4.30;3.88;;;23.10;99.90;;;;;;5047684;28;20865;-73
2022/07/26 02:08:54;;;;;;;4.30;3.90;;;23.20;99.90;;;;;;5048887;28;20225;-72
2022/07/26 02:11:21;;;;;;;3.88;3.58;;;23.20;99.90;;;;;;5048628;28;20574;-72
2022/07/26 02:13:50;;;;;;;4.43;4.03;;;23.30;99.90;;;;;;5051635;28;20219;-71
2022/07/26 02:16:17;;;;;;;4.65;4.00;;;23.30;99.90;;;;;;5050981;28;20207;-72
2022/07/26 02:18:44;;;;;;;5.70;4.40;;;23.30;99.90;;;;;;5047022;28;20219;-70
2022/07/26 02:21:11;;;;;;;4.63;4.10;;;23.30;99.90;;;;;;5049734;28;20215;-72
2022/07/26 02:23:38;;;;;;;3.95;3.65;;;23.20;99.90;;;;;;5041596;28;20215;-73
2022/07/26 02:26:05;;;;;;;4.78;3.72;;;23.20;99.90;;;;;;5050513;28;20196;-72
2022/07/26 02:28:32;;;;;;;4.32;3.92;;;23.10;99.90;;;;;;5047755;28;20279;-74
2022/07/26 02:31:00;;;;;;;4.38;3.90;;;23.00;99.90;;;;;;5047264;28;20214;-73
2022/07/26 02:33:28;;;;;;;3.40;3.20;;;22.90;99.90;;;;;;5047678;28;20221;-71
2022/07/26 02:35:55;;;;;;;4.50;3.63;;;22.90;99.90;;;;;;5049021;28;20199;-73
2022/07/26 02:38:22;;;;;;;4.45;3.90;;;22.70;99.90;;;;;;5046242;28;20223;-72
2022/07/26 02:40:51;;;;;;;4.13;3.72;;;22.60;99.90;;;;;;5049503;28;20219;-72
2022/07/26 02:43:18;;;;;;;4.45;3.95;;;22.60;99.90;;;;;;5047465;28;20238;-72
2022/07/26 02:45:45;;;;;;;5.10;4.60;;;22.60;99.90;;;;;;5048547;28;20200;-72
2022/07/26 02:48:14;;;;;;;5.15;4.28;;;22.70;99.90;;;;;;5044841;28;20218;-72
2022/07/26 02:50:41;;;;;;;4.40;4.00;;;22.70;99.90;;;;;;5080018;22;20234;-75
2022/07/26 02:53:08;;;;;;;4.00;3.60;;;22.70;99.90;;;;;;5071795;28;20723;-74
2022/07/26 02:55:35;;;;;;;4.05;3.65;;;22.70;99.90;;;;;;5081556;28;20209;-75
2022/07/26 02:58:02;;;;;;;4.20;3.90;;;22.80;99.90;;;;;;5072777;28;20267;-75
2022/07/26 03:00:29;;;;;;;5.45;4.45;;;22.70;99.90;;;;;;5071514;28;20225;-76
2022/07/26 03:02:56;;;;;;;4.45;4.05;;;22.60;99.90;;;;;;5064775;28;20714;-75
2022/07/26 03:05:24;;;;;;;6.13;4.47;;;22.60;99.90;;;;;;5064221;28;20198;-75
2022/07/26 03:07:51;;;;;;;4.65;4.25;;;22.60;99.90;;;;;;5067587;28;20214;-76
2022/07/26 03:10:19;;;;;;;4.93;4.53;;;22.70;99.90;;;;;;5064393;28;20218;-75
2022/07/26 03:12:46;;;;;;;5.40;4.90;;;22.80;99.90;;;;;;5065043;28;20222;-75
2022/07/26 03:15:13;;;;;;;4.60;4.20;;;22.90;99.90;;;;;;5064977;28;20563;-75
2022/07/26 03:17:40;;;;;;;5.60;4.18;;;22.80;99.90;;;;;;5069200;28;20210;-75
2022/07/26 03:20:09;;;;;;;5.07;4.68;;;22.80;99.90;;;;;;5065244;28;20214;-74
2022/07/26 03:22:37;;;;;;;4.85;4.32;;;22.90;99.90;;;;;;5067214;28;20221;-75
2022/07/26 03:25:06;;;;;;;5.32;3.88;;;22.80;99.90;;;;;;5064238;28;20202;-75
2022/07/26 03:27:33;;;;;;;4.28;3.85;;;22.80;99.90;;;;;;5065475;28;20218;-76
2022/07/26 03:30:00;;;;;;;4.43;4.03;;;22.70;99.90;;;;;;5064479;28;20725;-76
2022/07/26 03:32:27;;;;;;;4.43;4.03;;;22.70;99.90;;;;;;5064389;28;20229;-76
2022/07/26 03:34:54;;;;;;;4.35;3.28;;;22.70;99.90;;;;;;5067591;28;20915;-75
2022/07/26 03:37:21;;;;;;;4.10;3.70;;;22.60;99.90;;;;;;5065782;28;20224;-75
2022/07/26 03:39:50;;;;;;;4.32;3.72;;;22.50;99.90;;;;;;5062048;28;20214;-76
2022/07/26 03:42:17;;;;;;;4.40;3.67;;;22.40;99.90;;;;;;5070503;28;20218;-75
2022/07/26 03:44:44;;;;;;;4.35;3.95;;;22.40;99.90;;;;;;5073434;28;20190;-75
2022/07/26 03:47:11;;;;;;;6.63;4.10;;;22.40;99.90;;;;;;5075875;28;20271;-76
2022/07/26 03:49:38;;;;;;;4.20;3.75;;;22.40;99.90;;;;;;5072446;28;20229;-77
2022/07/26 03:52:06;;;;;;;4.05;3.70;;;22.30;99.90;;;;;;5072698;28;20228;-78
2022/07/26 03:54:33;;;;;;;3.88;3.58;;;22.10;99.90;;;;;;5073441;28;20201;-77
2022/07/26 03:57:00;;;;;;;4.00;3.70;;;22.10;99.90;;;;;;5070420;28;20202;-77
2022/07/26 03:59:27;;;;;;;4.05;3.33;;;22.10;99.90;;;;;;5072719;28;20302;-79
2022/07/26 04:01:54;;;;;;;4.03;3.72;;;22.20;99.90;;;;;;5071758;28;20286;-76
2022/07/26 04:04:21;;;;;;;4.88;4.30;;;22.20;99.90;;;;;;5073630;28;20217;-76
2022/07/26 04:06:48;;;;;;;4.05;3.75;;;22.30;99.90;;;;;;5066783;28;20202;-76
2022/07/26 04:09:16;;;;;;;4.55;4.15;;;22.30;99.90;;;;;;5073165;28;20202;-76
2022/07/26 04:11:44;;;;;;;3.55;3.25;;;22.30;99.90;;;;;;5068723;28;20698;-77
2022/07/26 04:14:12;;;;;;;3.78;3.47;;;22.30;99.90;;;;;;5072386;28;20755;-76
2022/07/26 04:16:39;;;;;;;4.25;3.85;;;22.20;99.90;;;;;;5072469;28;20576;-77
2022/07/26 04:19:06;;;;;;;3.92;3.63;;;22.20;99.90;;;;;;5069466;28;20222;-77
2022/07/26 04:21:34;;;;;;;3.20;3.00;;;22.20;99.90;;;;;;5068268;28;20210;-77
2022/07/26 04:24:01;;;;;;;4.32;3.75;;;22.10;99.90;;;;;;5070407;28;20797;-76
2022/07/26 04:26:29;;;;;;;3.90;3.60;;;22.10;99.90;;;;;;5072999;28;20615;-77
2022/07/26 04:28:56;;;;;;;3.95;3.40;;;22.10;99.90;;;;;;5073453;28;20403;-75
2022/07/26 04:31:25;;;;;;;4.20;3.90;;;21.90;99.90;;;;;;5073802;28;20304;-76
2022/07/26 04:33:52;;;;;;;4.07;3.58;;;21.90;99.90;;;;;;5072655;28;20214;-77
2022/07/26 04:36:19;;;;;;;4.40;4.00;;;22.00;99.90;;;;;;5074684;28;20274;-76
2022/07/26 04:38:46;;;;;;;3.92;3.63;;;21.90;99.90;;;;;;5074364;28;20209;-76
2022/07/26 04:41:13;;;;;;;5.00;4.13;;;22.00;99.90;;;;;;5066972;28;20226;-77
2022/07/26 04:43:41;;;;;;;3.47;3.17;;;22.10;99.90;;;;;;5077322;28;20225;-76
2022/07/26 04:46:08;;;;;;;3.95;3.65;;;22.20;99.90;;;;;;5075377;28;20679;-77
2022/07/26 04:48:37;;;;;;;4.07;3.78;;;22.20;99.90;;;;;;5075591;28;20221;-75
2022/07/26 04:51:04;;;;;;;3.85;3.55;;;22.20;99.90;;;;;;5068069;28;20310;-76
2022/07/26 04:53:31;;;;;;;3.97;3.67;;;22.20;99.90;;;;;;5073705;28;20225;-77
2022/07/26 04:55:59;;;;;;;4.32;3.92;;;22.10;99.90;;;;;;5074271;28;20195;-77
2022/07/26 04:58:26;;;;;;;3.92;3.53;;;21.90;99.90;;;;;;5071154;28;20229;-77
2022/07/26 05:00:53;;;;;;;3.85;3.55;;;21.90;99.90;;;;;;5073583;28;20215;-77
2022/07/26 05:03:20;;;;;;;4.00;3.70;;;22.00;99.90;;;;;;5071535;28;20688;-76
2022/07/26 05:05:49;;;;;;;3.92;3.63;;;22.00;99.90;;;;;;5074300;28;20206;-76
2022/07/26 05:08:16;;;;;;;5.93;3.55;;;22.00;99.90;;;;;;5076694;28;20214;-76
2022/07/26 05:10:43;;;;;;;4.00;3.60;;;22.20;99.90;;;;;;5074479;28;20218;-76
2022/07/26 05:13:10;;;;;;;3.92;3.63;;;22.40;99.90;;;;;;5065972;28;20221;-78
2022/07/26 05:15:37;;;;;;;4.20;3.83;;;22.50;99.90;;;;;;5073175;28;20210;-78
2022/07/26 05:18:06;;;;;;;3.83;3.50;;;22.50;99.90;;;;;;5075547;28;20218;-78
2022/07/26 05:20:33;;;;;;;4.20;3.80;;;22.60;99.90;;;;;;5073666;28;20726;-78
2022/07/26 05:23:02;;;;;;;4.07;3.67;;;22.60;99.90;;;;;;5074538;28;20222;-78
2022/07/26 05:25:29;;;;;;;4.28;3.90;;;22.50;99.90;;;;;;5073841;28;20212;-78
2022/07/26 05:27:56;;;;;;;4.40;4.07;;;22.50;99.90;;;;;;5079117;28;20221;-78
2022/07/26 05:30:23;;;;;;;4.40;4.00;;;22.50;99.90;;;;;;5074308;28;20222;-78
2022/07/26 05:32:50;;;;;;;4.43;4.03;;;22.40;99.90;;;;;;5076563;28;20277;-79
2022/07/26 05:35:17;;;;;;;4.30;3.90;;;22.40;99.90;;;;;;5076148;28;20191;-77
2022/07/26 05:37:45;;;;;;;5.13;3.92;;;22.60;99.90;;;;;;5076248;28;20214;-77
2022/07/26 05:40:14;;;;;;;5.90;4.22;;;22.90;99.90;;;;;;5066707;28;20217;-78
2022/07/26 05:42:41;;;;;;;5.80;4.03;;;23.10;99.90;;;;;;5074926;28;20592;-78
2022/07/26 05:45:09;;;;;;;5.45;4.93;;;23.20;99.90;;;;;;5075443;28;20218;-78
2022/07/26 05:47:36;;;;;;;5.65;5.15;;;23.30;99.90;;;;;;5073191;28;20226;-78
2022/07/26 05:50:05;;;;;;;5.45;4.95;;;23.20;99.90;;;;;;5073223;28;20229;-78
2022/07/26 05:52:32;;;;;;;5.47;5.00;;;23.10;99.90;;;;;;5074756;28;20625;-78
2022/07/26 05:54:59;;;;;;;6.38;5.05;;;23.00;99.90;;;;;;5074910;28;20205;-80
2022/07/26 05:57:27;;;;;;;5.50;5.05;;;23.00;99.90;;;;;;5065039;28;20222;-78
2022/07/26 05:59:55;;;;;;;6.32;5.28;;;22.90;99.90;;;;;;5069632;28;20734;-78
2022/07/26 06:02:22;;;;;;;6.82;5.30;;;23.10;99.90;;;;;;5071203;28;20230;-78
2022/07/26 06:04:49;;;;;;;5.95;5.45;;;23.30;99.90;;;;;;5081115;28;20214;-78
2022/07/26 06:07:16;;;;;;;6.72;5.13;;;23.30;99.90;;;;;;5074660;28;20218;-79
2022/07/26 06:12:44;;;;;;;5.82;5.32;;;23.20;99.90;;;;;;5051884;28;20202;-79
2022/07/26 06:19:08;;;;;;;8.18;5.75;;;23.50;99.90;;;;;;5073964;28;20225;-79
2022/07/26 06:22:08;;;;;;;7.03;5.93;;;23.50;99.90;;;;;;5073316;28;20179;-78
2022/07/26 06:58:45;;;;;;;5.50;5.10;;;23.90;99.90;;;;;;5006893;28;20230;-77
2022/07/26 07:01:33;;;;;;;6.78;5.55;;;23.70;99.90;;;;;;5026142;28;21792;-76
2022/07/26 07:04:00;;;;;;;6.30;5.70;;;23.90;99.90;;;;;;5059265;28;20219;-77
2022/07/26 07:06:27;;;;;;;6.03;4.78;;;24.10;99.90;;;;;;5065968;28;20209;-76
2022/07/26 07:08:55;;;;;;;6.45;5.43;;;24.30;99.90;;;;;;5064891;28;20218;-78
2022/07/26 07:11:22;;;;;;;6.22;5.63;;;24.40;99.90;;;;;;5067916;28;20597;-75
2022/07/26 07:13:49;;;;;;;5.80;5.20;;;24.40;99.90;;;;;;5066261;28;20217;-76
2022/07/26 07:16:16;;;;;;;5.90;5.30;;;24.40;99.90;;;;;;5064967;28;20202;-76
2022/07/26 07:18:44;;;;;;;5.03;4.53;;;24.40;99.90;;;;;;5064819;28;20213;-78
2022/07/26 07:21:11;;;;;;;6.10;5.18;;;24.60;99.90;;;;;;5065510;28;20218;-79
2022/07/26 07:23:38;;;;;;;5.57;4.95;;;24.80;99.90;;;;;;5063025;28;20224;-77
2022/07/26 07:26:06;;;;;;;6.07;5.47;;;24.90;99.90;;;;;;5066938;28;20205;-76
2022/07/26 07:28:37;;;;;;;5.63;5.00;;;24.90;99.90;;;;;;5069244;28;20268;-76
2022/07/26 07:31:04;;;;;;;5.50;4.97;;;24.90;99.90;;;;;;5065032;28;20225;-77
2022/07/26 07:33:31;;;;;;;5.60;5.05;;;25.00;99.90;;;;;;5066201;28;20217;-77
2022/07/26 07:36:00;;;;;;;8.88;5.63;;;25.10;99.90;;;;;;5069012;28;20552;-77
2022/07/26 07:38:27;;;;;;;5.65;5.15;;;25.10;99.90;;;;;;5068848;28;20842;-76
2022/07/26 07:40:54;;;;;;;6.00;5.25;;;25.10;99.90;;;;;;5063164;28;20633;-76
2022/07/26 07:43:21;;;;;;;8.73;5.70;;;25.20;99.90;;;;;;5063734;28;20211;-76
2022/07/26 07:45:48;;;;;;;5.55;5.05;;;25.20;99.90;;;;;;5066235;28;20222;-76
2022/07/26 07:48:15;;;;;;;5.90;5.40;;;25.20;99.90;;;;;;5066917;28;20262;-76
2022/07/26 07:50:42;;;;;;;5.63;5.13;;;25.30;99.90;;;;;;5062743;28;20217;-77
2022/07/26 07:53:10;;;;;;;6.88;5.22;;;25.50;99.90;;;;;;5063903;28;20214;-78
2022/07/26 07:55:37;;;;;;;7.15;5.30;;;25.70;99.90;;;;;;5066513;28;20550;-76
2022/07/26 07:58:04;;;;;;;6.40;5.82;;;25.70;99.90;;;;;;5070541;28;20218;-77
2022/07/26 08:00:32;;;;;;;8.95;4.97;;;25.70;99.90;;;;;;5069362;28;20241;-78
2022/07/26 08:02:59;;;;;;;6.85;6.05;;;25.80;99.90;;;;;;5069255;28;20707;-77
2022/07/26 08:05:26;;;;;;;5.93;5.25;;;25.70;99.90;;;;;;5070561;28;20219;-77
2022/07/26 08:07:53;;;;;;;6.50;5.85;;;25.60;99.90;;;;;;5069013;28;20221;-78
2022/07/26 08:10:22;;;;;;;6.28;5.60;;;25.60;99.90;;;;;;5070144;28;20691;-77
2022/07/26 08:12:49;;;;;;;6.05;4.65;;;25.60;99.90;;;;;;5069753;28;20229;-77
2022/07/26 08:15:16;;;;;;;5.25;4.70;;;25.70;99.90;;;;;;5070389;28;20199;-78
2022/07/26 08:17:43;;;;;;;5.90;5.30;;;25.90;99.90;;;;;;5068348;28;20214;-77
2022/07/26 08:20:11;;;;;;;5.50;5.00;;;26.10;99.90;;;;;;5075500;28;20206;-77
2022/07/26 08:22:38;;;;;;;7.32;6.00;;;26.10;99.90;;;;;;5072226;28;20222;-78
2022/07/26 08:25:06;;;;;;;8.60;5.07;;;26.20;99.90;;;;;;5076343;28;20232;-77
2022/07/26 08:27:35;;;;;;;6.63;5.07;;;26.30;99.90;;;;;;5069566;28;20730;-77
2022/07/26 08:30:02;;;;;;;6.72;5.57;;;26.30;99.90;;;;;;5073685;28;20632;-78
2022/07/26 08:32:29;;;;;;;5.43;4.97;;;26.40;99.90;;;;;;5071409;28;20622;-77
2022/07/26 08:34:56;;;;;;;5.63;5.13;;;26.60;99.90;;;;;;5073984;28;20190;-77
2022/07/26 08:37:23;;;;;;;5.00;4.60;;;26.80;99.90;;;;;;5068318;28;20254;-77
2022/07/26 08:39:51;;;;;;;6.40;4.68;;;26.90;99.90;;;;;;5074707;28;20225;-78
2022/07/26 08:42:19;;;;;;;5.38;4.93;;;26.90;99.90;;;;;;5074593;28;20218;-75
2022/07/26 08:44:48;;;;;;;5.60;5.10;;;26.90;99.90;;;;;;5072133;28;20241;-76
2022/07/26 08:47:17;;;;;;;5.72;4.40;;;27.00;99.90;;;;;;5063045;28;20226;-78
2022/07/26 08:52:14;;;;;;;5.13;4.72;;;27.10;99.90;;;;;;5036901;28;20249;-74
2022/07/26 08:54:43;;;;;;;5.25;4.78;;;27.30;99.90;;;;;;5039800;28;20524;-73
2022/07/26 08:57:10;;;;;;;5.50;5.07;;;27.70;99.90;;;;;;5037990;28;20219;-75
2022/07/26 08:59:38;;;;;;;6.32;5.13;;;28.10;99.90;;;;;;5040242;28;20207;-74
2022/07/26 09:02:10;;;;;;;5.97;5.03;;;28.30;99.90;;;;;;5018734;28;20232;-74
2022/07/26 09:04:38;;;;;;;5.53;4.93;;;28.40;99.90;;;;;;5017281;28;20237;-73
2022/07/26 09:07:06;;;;;;;5.57;4.88;;;28.30;99.90;;;;;;5020086;28;20246;-72
2022/07/26 09:09:35;;;;;;;5.90;5.22;;;27.90;99.90;;;;;;5021238;28;20384;-75
2022/07/26 09:12:16;;;;;;;9.20;4.53;;;27.90;99.90;;;;;;5021121;28;20227;-74
2022/07/26 09:14:45;;;;;;;5.72;5.13;;;27.90;99.90;;;;;;5020047;28;20669;-73
2022/07/26 09:17:15;;;;;;;5.50;5.10;;;27.90;99.90;;;;;;5019968;28;20299;-72
2022/07/26 09:19:43;;;;;;;5.22;4.72;;;28.00;99.90;;;;;;5019729;28;20222;-73
2022/07/26 09:22:12;;;;;;;5.35;4.85;;;28.10;99.90;;;;;;5019257;28;20794;-73
2022/07/26 09:24:42;;;;;;;7.07;5.35;;;28.30;99.90;;;;;;5020908;28;20274;-73
2022/07/26 09:27:10;;;;;;;5.57;5.07;;;28.40;99.90;;;;;;5018348;28;20716;-73
2022/07/26 09:29:48;;;;;;;5.50;5.00;;;28.40;99.90;;;;;;5018883;28;20313;-73
2022/07/26 09:32:18;;;;;;;5.35;4.85;;;28.40;99.90;;;;;;5021504;28;20251;-73
2022/07/26 09:34:48;;;;;;;6.32;5.10;;;28.40;99.90;;;;;;5020395;28;20188;-73
2022/07/26 09:37:16;;;;;;;5.40;4.90;;;28.40;99.90;;;;;;5018709;28;20224;-73
2022/07/26 09:39:58;;;;;;;4.68;4.15;;;28.60;99.90;;;;;;5016934;28;20287;-72
2022/07/26 09:42:26;;;;;;;5.25;4.60;;;28.80;99.90;;;;;;5018830;28;20231;-73
2022/07/26 09:44:54;;;;;;;5.88;4.65;;;29.20;99.90;;;;;;5020645;28;20220;-72
2022/07/26 09:47:23;;;;;;;6.85;4.97;;;29.40;99.90;;;;;;5018672;28;20859;-72
2022/07/26 09:49:50;;;;;;;4.38;3.97;;;29.70;99.90;;;;;;5019304;28;20203;-71
2022/07/26 09:52:19;;;;;;;6.38;4.38;;;29.70;99.90;;;;;;5035241;28;20226;-73
2022/07/26 09:54:48;;;;;;;4.90;4.50;;;29.60;99.90;;;;;;5039166;28;20191;-71
2022/07/26 09:57:16;;;;;;;4.72;4.32;;;29.50;99.90;;;;;;5038982;28;20242;-72
2022/07/26 09:59:43;;;;;;;4.78;4.28;;;29.50;99.90;;;;;;5038607;28;20207;-71
2022/07/26 10:02:12;;;;;;;5.32;4.15;;;29.20;99.90;;;;;;5037953;28;20223;-72
2022/07/26 10:04:42;;;;;;;5.13;4.18;;;29.00;99.90;;;;;;5038836;28;20298;-73
2022/07/26 10:07:09;;;;;;;6.03;4.57;;;29.00;99.90;;;;;;5041199;28;20222;-72
2022/07/26 10:09:42;;;;;;;5.00;4.50;;;29.00;99.90;;;;;;5045382;28;20718;-73
2022/07/26 10:12:14;;;;;;;4.70;4.22;;;29.00;99.90;;;;;;5033196;28;20566;-72
2022/07/26 10:14:44;;;;;;;6.28;4.50;;;29.50;99.90;;;;;;5039095;28;20278;-73
2022/07/26 10:17:44;;;;;;;6.80;4.25;;;29.60;99.90;;;;;;5036688;28;20218;-73
2022/07/26 10:20:41;;;;;;;4.60;4.20;;;29.70;99.90;;;;;;5038477;28;20241;-73
2022/07/26 10:23:32;;;;;;;5.05;4.40;;;30.10;99.90;;;;;;5035530;28;20585;-73
2022/07/26 10:26:00;;;;;;;3.78;3.47;;;30.40;99.90;;;;;;5027909;28;20246;-71
2022/07/26 10:28:30;;;;;;;4.82;3.92;;;30.60;99.90;;;;;;5038933;28;20223;-72
2022/07/26 10:31:29;;;;;;;4.25;3.85;;;30.70;99.90;;;;;;5038206;28;20219;-73
2022/07/26 10:33:57;;;;;;;6.03;3.80;;;31.10;99.90;;;;;;5035934;28;20833;-73
2022/07/26 10:36:29;;;;;;;4.25;3.95;;;31.00;99.90;;;;;;5038888;28;20721;-73
2022/07/26 10:39:01;;;;;;;4.55;3.58;;;30.90;99.90;;;;;;5035791;28;20238;-74
2022/07/26 10:41:32;;;;;;;3.63;3.30;;;30.90;99.90;;;;;;5040845;28;20302;-73
2022/07/26 10:44:30;;;;;;;3.60;3.30;;;30.60;99.90;;;;;;5039823;28;20218;-73
2022/07/26 10:47:17;;;;;;;4.63;3.22;;;30.60;99.90;;;;;;5033541;28;20191;-73
2022/07/26 10:49:54;;;;;;;3.38;3.10;;;30.80;99.90;;;;;;5037098;28;20195;-76
2022/07/26 10:52:26;;;;;;;4.22;3.08;;;31.00;99.90;;;;;;5040170;28;20222;-73
2022/07/26 10:55:14;;;;;;;3.60;3.30;;;31.10;99.90;;;;;;5040627;28;20186;-73
2022/07/26 10:57:43;;;;;;;3.53;3.22;;;31.30;99.90;;;;;;5037100;28;20502;-73
2022/07/26 11:00:22;;;;;;;3.30;3.00;;;31.30;99.90;;;;;;5036901;28;20673;-73
2022/07/26 11:02:55;;;;;;;4.07;2.70;;;31.30;99.90;;;;;;5041307;28;20223;-73
2022/07/26 11:05:27;;;;;;;4.78;2.90;;;31.40;99.90;;;;;;5038468;28;20206;-73
2022/07/26 11:08:09;;;;;;;3.25;2.95;;;31.70;99.90;;;;;;5042176;28;20244;-73
2022/07/26 11:10:39;;;;;;;3.70;2.88;;;31.80;99.90;;;;;;5041571;28;20263;-71
2022/07/26 11:13:11;;;;;;;3.08;2.88;;;31.70;99.90;;;;;;5033743;28;20222;-71
2022/07/26 11:15:40;;;;;;;3.45;2.88;;;31.80;99.90;;;;;;5038341;28;20707;-72
2022/07/26 11:18:13;;;;;;;2.70;2.50;;;32.00;99.90;;;;;;5036691;28;20223;-71
2022/07/26 11:20:42;;;;;;;2.90;2.67;;;32.20;99.90;;;;;;5037714;28;20527;-71
2022/07/26 11:23:28;;;;;;;2.65;2.45;;;32.30;99.90;;;;;;5032992;28;20219;-73
2022/07/26 11:26:14;;;;;;;2.53;2.20;;;32.40;99.90;;;;;;5036968;28;20218;-70
2022/07/26 11:28:54;;;;;;;2.35;2.15;;;32.60;99.90;;;;;;5032755;28;20222;-69
2022/07/26 11:31:24;;;;;;;2.80;2.60;;;32.80;99.90;;;;;;5037693;28;20309;-69
2022/07/26 11:33:52;;;;;;;2.47;2.30;;;32.80;99.90;;;;;;5033148;28;20986;-69
2022/07/26 11:36:35;;;;;;;2.63;2.42;;;32.80;99.90;;;;;;5035995;28;20206;-71
2022/07/26 11:39:05;;;;;;;2.55;2.35;;;32.30;99.90;;;;;;5034244;28;20613;-71
2022/07/26 11:41:34;;;;;;;2.30;2.10;;;31.70;99.90;;;;;;5036752;28;20627;-71
2022/07/26 11:44:01;;;;;;;2.40;2.20;;;31.40;99.90;;;;;;5032989;28;20229;-70
2022/07/26 11:46:37;;;;;;;2.50;2.30;;;31.10;99.90;;;;;;5036370;28;20223;-71
2022/07/26 11:49:12;;;;;;;2.15;2.05;;;31.20;99.90;;;;;;5031137;28;20894;-72
2022/07/26 11:51:39;;;;;;;2.83;2.30;;;31.60;99.90;;;;;;5037204;28;20265;-70
2022/07/26 11:54:08;;;;;;;3.38;1.90;;;32.00;99.90;;;;;;5037865;28;20237;-69
2022/07/26 11:56:35;;;;;;;2.55;2.35;;;32.30;99.90;;;;;;5038148;28;20195;-70
2022/07/26 11:59:02;;;;;;;2.55;2.08;;;32.50;99.90;;;;;;5035168;28;20223;-69
2022/07/26 12:01:30;;;;;;;1.95;1.85;;;32.80;99.90;;;;;;5039843;28;20226;-71
2022/07/26 12:03:57;;;;;;;2.58;2.38;;;32.90;99.90;;;;;;5042392;28;20227;-72
2022/07/26 12:06:27;;;;;;;2.28;2.08;;;33.10;99.90;;;;;;5037229;28;20219;-70
2022/07/26 12:08:58;;;;;;;3.88;2.40;;;33.00;99.90;;;;;;5041387;28;20608;-68
2022/07/26 12:11:38;;;;;;;2.47;2.28;;;32.70;99.90;;;;;;5039486;28;20218;-70
2022/07/26 12:14:05;;;;;;;1.83;1.70;;;32.10;99.90;;;;;;5039628;28;20242;-69
2022/07/26 12:16:41;;;;;;;1.85;1.70;;;31.80;99.90;;;;;;5038717;28;20195;-69
2022/07/26 12:19:22;;;;;;;1.92;1.80;;;31.60;99.90;;;;;;5040589;28;20802;-69
2022/07/26 12:21:51;;;;;;;1.85;1.70;;;31.50;99.90;;;;;;5041299;28;20651;-70
2022/07/26 12:24:43;;;;;;;1.92;1.83;;;31.30;99.90;;;;;;5041221;28;20242;-69
2022/07/26 12:27:14;;;;;;;1.90;1.80;;;31.10;99.90;;;;;;5038617;28;20238;-68
2022/07/26 12:29:42;;;;;;;2.15;2.03;;;31.10;99.90;;;;;;5040536;28;20581;-68
2022/07/26 12:32:12;;;;;;;2.03;1.63;;;31.10;99.90;;;;;;5040072;28;20250;-70
2022/07/26 12:34:41;;;;;;;1.70;1.60;;;31.00;99.90;;;;;;5044522;28;20195;-69
2022/07/26 12:37:10;;;;;;;1.65;1.55;;;30.90;99.90;;;;;;5042334;28;20242;-66
2022/07/26 12:39:37;;;;;;;2.05;1.90;;;30.70;99.90;;;;;;5041677;28;20219;-69
2022/07/26 12:42:26;;;;;;;2.10;1.88;;;30.70;99.90;;;;;;5041846;28;20265;-69
2022/07/26 12:44:53;;;;;;;2.00;1.90;;;30.80;99.90;;;;;;5039733;28;20195;-72
2022/07/26 12:47:21;;;;;;;1.70;1.60;;;30.70;99.90;;;;;;5039645;28;20219;-73
2022/07/26 12:49:48;;;;;;;1.60;1.50;;;30.70;99.90;;;;;;5040894;28;20206;-73
2022/07/26 12:52:17;;;;;;;2.05;1.70;;;30.70;99.90;;;;;;5038736;28;20321;-72
2022/07/26 12:54:45;;;;;;;1.88;1.70;;;30.80;99.90;;;;;;5039236;28;20206;-73
2022/07/26 12:57:13;;;;;;;1.40;1.30;;;30.70;99.90;;;;;;5039435;28;20222;-74
2022/07/26 12:59:42;;;;;;;1.70;1.60;;;30.80;99.90;;;;;;5040645;28;20203;-68
2022/07/26 13:02:10;;;;;;;1.80;1.70;;;30.80;99.90;;;;;;5036252;28;20633;-69
2022/07/26 13:04:37;;;;;;;1.88;1.77;;;30.70;99.90;;;;;;5038547;28;20740;-69
2022/07/26 13:07:05;;;;;;;1.42;1.33;;;30.70;99.90;;;;;;5039079;28;20704;-71
2022/07/26 13:09:32;;;;;;;1.70;1.60;;;30.80;99.90;;;;;;5036488;28;20203;-67
2022/07/26 13:12:00;;;;;;;3.53;1.73;;;30.90;99.90;;;;;;5033618;28;21043;-72
2022/07/26 13:14:27;;;;;;;1.90;1.80;;;31.10;99.90;;;;;;5038149;28;20226;-69
2022/07/26 13:16:56;;;;;;;1.65;1.55;;;31.10;99.90;;;;;;5035514;28;20685;-68
2022/07/26 13:19:23;;;;;;;2.08;1.70;;;31.20;99.90;;;;;;5039072;28;20202;-69
2022/07/26 13:21:50;;;;;;;1.80;1.70;;;31.20;99.90;;;;;;5037106;28;20222;-69
2022/07/26 13:24:17;;;;;;;2.65;1.92;;;31.10;99.90;;;;;;5038911;28;20195;-68
2022/07/26 13:26:44;;;;;;;1.70;1.60;;;31.10;99.90;;;;;;5038956;28;20294;-68
2022/07/26 13:29:12;;;;;;;2.72;1.70;;;31.00;99.90;;;;;;5038028;28;20195;-69
2022/07/26 13:31:39;;;;;;;1.60;1.50;;;31.10;99.90;;;;;;5034236;28;20219;-69
2022/07/26 13:34:07;;;;;;;1.85;1.70;;;31.20;99.90;;;;;;5038280;28;20328;-68
2022/07/26 13:36:35;;;;;;;1.50;1.40;;;31.20;99.90;;;;;;5042780;28;20191;-68
2022/07/26 13:39:02;;;;;;;1.42;1.33;;;31.30;99.90;;;;;;5038842;28;20718;-69
2022/07/26 13:41:30;;;;;;;1.20;1.20;;;31.20;99.90;;;;;;5039960;28;20223;-69